createdAt,value
2023-04-18T00:00:40.026Z,6
2023-04-18T00:01:40.083Z,6
2023-04-18T00:02:40.263Z,5.9
2023-04-18T00:03:40.149Z,5.9
2023-04-18T00:04:40.115Z,5.9
2023-04-18T00:05:40.035Z,5.9
2023-04-18T00:06:40.025Z,5.8
2023-04-18T00:07:40.030Z,5.8
2023-04-18T00:08:40.034Z,5.8
2023-04-18T00:09:40.054Z,5.8
2023-04-18T00:10:40.023Z,5.8
2023-04-18T00:11:40.037Z,5.7
2023-04-18T00:12:40.025Z,5.7
2023-04-18T00:13:40.043Z,5.7
2023-04-18T00:14:40.047Z,5.7
2023-04-18T00:15:40.022Z,5.7
2023-04-18T00:16:42.367Z,5.7
2023-04-18T00:17:45.114Z,5.7
2023-04-18T00:18:40.019Z,5.7
2023-04-18T00:19:40.057Z,5.7
2023-04-18T00:20:40.022Z,5.7
2023-04-18T00:21:40.032Z,5.7
2023-04-18T00:22:40.028Z,5.7
2023-04-18T00:23:40.035Z,5.6
2023-04-18T00:24:40.051Z,5.6
2023-04-18T00:25:40.061Z,5.6
2023-04-18T00:26:40.037Z,5.6
2023-04-18T00:27:40.033Z,5.5
2023-04-18T00:28:40.021Z,5.5
2023-04-18T00:29:40.036Z,5.5
2023-04-18T00:30:40.116Z,5.5
2023-04-18T00:31:40.032Z,5.5
2023-04-18T00:32:40.057Z,5.4
2023-04-18T00:33:40.038Z,5.4
2023-04-18T00:34:40.029Z,5.4
2023-04-18T00:35:40.047Z,5.3
2023-04-18T00:36:40.028Z,5.3
2023-04-18T00:37:42.343Z,5.3
2023-04-18T00:38:45.179Z,5.3
2023-04-18T00:39:40.029Z,5.3
2023-04-18T00:40:40.049Z,5.3
2023-04-18T00:41:40.028Z,5.2
2023-04-18T00:42:40.022Z,5.2
2023-04-18T00:43:40.029Z,5.2
2023-04-18T00:44:40.140Z,5.2
2023-04-18T00:45:40.048Z,5.2
2023-04-18T00:46:40.055Z,5.2
2023-04-18T00:47:40.071Z,5.2
2023-04-18T00:48:40.025Z,5.2
2023-04-18T00:49:40.043Z,5.2
2023-04-18T00:50:40.031Z,5.2
2023-04-18T00:51:40.027Z,5.2
2023-04-18T00:52:40.043Z,5.2
2023-04-18T00:53:40.037Z,5.2
2023-04-18T00:54:40.054Z,5.2
2023-04-18T00:55:40.049Z,5.2
2023-04-18T00:56:40.043Z,5.2
2023-04-18T00:57:40.030Z,5.2
2023-04-18T00:58:42.419Z,5.2
2023-04-18T00:59:44.794Z,5.2
2023-04-18T01:00:40.026Z,5.2
2023-04-18T01:01:40.105Z,5.2
2023-04-18T01:02:40.118Z,5.2
2023-04-18T01:03:40.111Z,5.2
2023-04-18T01:04:40.061Z,5.2
2023-04-18T01:05:40.222Z,5.2
2023-04-18T01:06:40.032Z,5.2
2023-04-18T01:07:40.022Z,5.2
2023-04-18T01:08:40.026Z,5.3
2023-04-18T01:09:40.055Z,5.3
2023-04-18T01:10:40.030Z,5.4
2023-04-18T01:11:40.024Z,5.4
2023-04-18T01:12:40.026Z,5.4
2023-04-18T01:13:40.038Z,5.5
2023-04-18T01:14:40.042Z,5.5
2023-04-18T01:15:40.070Z,5.5
2023-04-18T01:16:40.062Z,5.6
2023-04-18T01:17:40.056Z,5.6
2023-04-18T01:18:40.029Z,5.6
2023-04-18T01:19:42.472Z,5.6
2023-04-18T01:20:45.361Z,5.7
2023-04-18T01:21:40.026Z,5.7
2023-04-18T01:22:40.031Z,5.7
2023-04-18T01:23:40.026Z,5.7
2023-04-18T01:24:40.047Z,5.7
2023-04-18T01:25:40.044Z,5.7
2023-04-18T01:26:40.167Z,5.7
2023-04-18T01:27:40.020Z,5.7
2023-04-18T01:28:40.031Z,5.7
2023-04-18T01:29:40.069Z,5.7
2023-04-18T01:30:40.029Z,5.7
2023-04-18T01:31:40.126Z,5.7
2023-04-18T01:32:40.116Z,5.7
2023-04-18T01:33:40.033Z,5.7
2023-04-18T01:34:40.060Z,5.7
2023-04-18T01:35:40.031Z,5.7
2023-04-18T01:36:40.030Z,5.7
2023-04-18T01:37:40.027Z,5.7
2023-04-18T01:38:40.026Z,5.7
2023-04-18T01:39:40.055Z,5.7
2023-04-18T01:40:42.485Z,5.7
2023-04-18T01:41:45.424Z,5.7
2023-04-18T01:42:40.017Z,5.7
2023-04-18T01:43:40.031Z,5.7
2023-04-18T01:44:40.032Z,5.7
2023-04-18T01:45:40.033Z,5.7
2023-04-18T01:46:40.074Z,5.7
2023-04-18T01:47:40.068Z,5.7
2023-04-18T01:48:40.041Z,5.7
2023-04-18T01:49:40.056Z,5.7
2023-04-18T01:50:40.029Z,5.7
2023-04-18T01:51:40.024Z,5.7
2023-04-18T01:52:40.029Z,5.7
2023-04-18T01:53:40.032Z,5.7
2023-04-18T01:54:40.040Z,5.7
2023-04-18T01:55:40.036Z,5.6
2023-04-18T01:56:40.027Z,5.6
2023-04-18T01:57:40.042Z,5.6
2023-04-18T01:58:40.027Z,5.6
2023-04-18T01:59:40.028Z,5.6
2023-04-18T02:00:40.080Z,5.6
2023-04-18T02:01:40.066Z,5.6
2023-04-18T02:02:43.374Z,5.6
2023-04-18T02:03:46.026Z,5.6
2023-04-18T02:04:40.021Z,5.5
2023-04-18T02:05:40.044Z,5.5
2023-04-18T02:06:40.030Z,5.5
2023-04-18T02:07:40.033Z,5.5
2023-04-18T02:08:40.038Z,5.4
2023-04-18T02:09:40.027Z,5.4
2023-04-18T02:10:40.029Z,5.4
2023-04-18T02:11:40.046Z,5.4
2023-04-18T02:12:40.029Z,5.4
2023-04-18T02:13:40.045Z,5.3
2023-04-18T02:14:40.038Z,5.3
2023-04-18T02:15:40.035Z,5.3
2023-04-18T02:16:40.032Z,5.3
2023-04-18T02:17:40.072Z,5.3
2023-04-18T02:18:40.032Z,5.3
2023-04-18T02:19:40.029Z,5.3
2023-04-18T02:20:40.046Z,5.3
2023-04-18T02:21:40.042Z,5.3
2023-04-18T02:22:40.153Z,5.3
2023-04-18T02:23:42.589Z,5.3
2023-04-18T02:24:46.002Z,5.3
2023-04-18T02:25:40.048Z,5.4
2023-04-18T02:26:40.029Z,5.4
2023-04-18T02:27:40.019Z,5.4
2023-04-18T02:28:40.049Z,5.4
2023-04-18T02:29:40.045Z,5.4
2023-04-18T02:31:40.080Z,5.4
2023-04-18T02:32:40.060Z,5.4
2023-04-18T02:33:40.031Z,5.4
2023-04-18T02:34:40.048Z,5.4
2023-04-18T02:35:40.029Z,5.5
2023-04-18T02:36:40.034Z,5.5
2023-04-18T02:37:40.036Z,5.5
2023-04-18T02:38:40.024Z,5.5
2023-04-18T02:39:40.043Z,5.5
2023-04-18T02:40:40.029Z,5.6
2023-04-18T02:41:40.039Z,5.6
2023-04-18T02:42:40.021Z,5.6
2023-04-18T02:43:40.327Z,5.6
2023-04-18T02:44:42.679Z,5.6
2023-04-18T02:45:46.063Z,5.7
2023-04-18T02:46:40.027Z,5.7
2023-04-18T02:47:47.311Z,5.7
2023-04-18T02:48:40.035Z,5.7
2023-04-18T02:49:40.077Z,5.7
2023-04-18T02:50:40.029Z,5.7
2023-04-18T02:51:40.036Z,5.7
2023-04-18T02:52:40.046Z,5.7
2023-04-18T02:53:40.031Z,5.7
2023-04-18T02:54:40.051Z,5.7
2023-04-18T02:55:40.028Z,5.7
2023-04-18T02:56:40.073Z,5.7
2023-04-18T02:57:40.026Z,5.7
2023-04-18T02:58:40.027Z,5.7
2023-04-18T02:59:40.041Z,5.7
2023-04-18T03:00:40.030Z,5.7
2023-04-18T03:01:40.052Z,5.7
2023-04-18T03:02:40.129Z,5.7
2023-04-18T03:03:40.037Z,5.7
2023-04-18T03:04:40.426Z,5.7
2023-04-18T03:05:42.734Z,5.7
2023-04-18T03:06:46.137Z,5.7
2023-04-18T03:07:40.023Z,5.7
2023-04-18T03:08:40.025Z,5.7
2023-04-18T03:09:40.051Z,5.7
2023-04-18T03:10:40.037Z,5.7
2023-04-18T03:11:40.033Z,5.7
2023-04-18T03:12:40.034Z,5.7
2023-04-18T03:13:40.036Z,5.7
2023-04-18T03:14:40.054Z,5.7
2023-04-18T03:15:40.053Z,5.8
2023-04-18T03:16:40.027Z,5.7
2023-04-18T03:17:40.067Z,5.8
2023-04-18T03:18:40.038Z,5.8
2023-04-18T03:19:40.023Z,5.8
2023-04-18T03:20:40.030Z,5.8
2023-04-18T03:21:40.030Z,5.8
2023-04-18T03:22:40.022Z,5.8
2023-04-18T03:23:40.025Z,5.8
2023-04-18T03:24:40.031Z,5.8
2023-04-18T03:25:40.418Z,5.8
2023-04-18T03:26:42.921Z,5.8
2023-04-18T03:27:46.168Z,5.8
2023-04-18T03:28:40.028Z,5.8
2023-04-18T03:29:40.071Z,5.9
2023-04-18T03:30:40.022Z,5.9
2023-04-18T03:31:40.108Z,5.9
2023-04-18T03:32:40.095Z,5.8
2023-04-18T03:33:40.025Z,5.9
2023-04-18T03:34:40.028Z,5.9
2023-04-18T03:35:40.032Z,5.9
2023-04-18T03:36:40.054Z,5.9
2023-04-18T03:37:40.036Z,5.9
2023-04-18T03:38:40.016Z,5.9
2023-04-18T03:39:40.025Z,5.9
2023-04-18T03:40:40.027Z,5.9
2023-04-18T03:41:40.041Z,5.9
2023-04-18T03:42:40.056Z,5.9
2023-04-18T03:44:40.032Z,5.9
2023-04-18T03:45:40.019Z,5.9
2023-04-18T03:46:40.058Z,5.8
2023-04-18T03:47:42.933Z,5.8
2023-04-18T03:48:46.368Z,5.8
2023-04-18T03:49:40.021Z,5.8
2023-04-18T03:50:40.028Z,5.7
2023-04-18T03:51:40.025Z,5.7
2023-04-18T03:52:40.039Z,5.7
2023-04-18T03:53:40.023Z,5.7
2023-04-18T03:54:40.022Z,5.7
2023-04-18T03:55:40.031Z,5.7
2023-04-18T03:56:40.030Z,5.7
2023-04-18T03:57:41.261Z,5.7
2023-04-18T03:58:40.022Z,5.7
2023-04-18T03:59:40.040Z,5.7
2023-04-18T04:00:40.027Z,5.7
2023-04-18T04:01:40.053Z,5.7
2023-04-18T04:02:40.202Z,5.7
2023-04-18T04:03:40.253Z,5.7
2023-04-18T04:04:40.055Z,5.7
2023-04-18T04:05:40.037Z,5.7
2023-04-18T04:06:40.053Z,5.7
2023-04-18T04:07:40.034Z,5.7
2023-04-18T04:08:42.167Z,5.7
2023-04-18T04:09:44.992Z,5.7
2023-04-18T04:10:40.048Z,5.7
2023-04-18T04:11:40.036Z,5.7
2023-04-18T04:12:40.031Z,5.7
2023-04-18T04:13:40.027Z,5.7
2023-04-18T04:14:40.036Z,5.7
2023-04-18T04:15:40.047Z,5.7
2023-04-18T04:16:40.038Z,5.7
2023-04-18T04:17:40.051Z,5.7
2023-04-18T04:18:40.030Z,5.7
2023-04-18T04:19:40.063Z,5.7
2023-04-18T04:20:40.034Z,5.7
2023-04-18T04:21:40.029Z,5.7
2023-04-18T04:22:40.031Z,5.7
2023-04-18T04:23:40.030Z,5.7
2023-04-18T04:24:40.067Z,5.7
2023-04-18T04:25:40.039Z,5.7
2023-04-18T04:26:40.041Z,5.7
2023-04-18T04:27:40.033Z,5.7
2023-04-18T04:28:40.794Z,5.7
2023-04-18T04:29:43.340Z,5.7
2023-04-18T04:30:46.685Z,5.8
2023-04-18T04:31:40.053Z,5.8
2023-04-18T04:32:40.057Z,5.8
2023-04-18T04:33:40.040Z,5.8
2023-04-18T04:34:40.033Z,5.8
2023-04-18T04:35:40.031Z,5.8
2023-04-18T04:36:40.025Z,5.8
2023-04-18T04:37:40.027Z,5.8
2023-04-18T04:38:40.021Z,5.8
2023-04-18T04:39:40.147Z,5.8
2023-04-18T04:40:40.109Z,5.8
2023-04-18T04:41:40.163Z,5.8
2023-04-18T04:42:40.024Z,5.8
2023-04-18T04:43:40.031Z,5.9
2023-04-18T04:44:40.052Z,5.9
2023-04-18T04:45:40.064Z,5.9
2023-04-18T04:46:40.048Z,5.9
2023-04-18T04:47:40.046Z,5.9
2023-04-18T04:48:40.022Z,5.9
2023-04-18T04:49:40.028Z,5.9
2023-04-18T04:50:40.911Z,5.9
2023-04-18T04:51:44.147Z,5.9
2023-04-18T04:52:46.841Z,6
2023-04-18T04:53:40.022Z,6
2023-04-18T04:54:40.041Z,6
2023-04-18T04:55:40.029Z,6
2023-04-18T04:56:40.031Z,6
2023-04-18T04:57:40.031Z,6
2023-04-18T04:58:40.022Z,6
2023-04-18T04:59:40.047Z,6
2023-04-18T05:00:40.023Z,6.1
2023-04-18T05:01:40.097Z,6.1
2023-04-18T05:02:40.156Z,6.1
2023-04-18T05:03:40.207Z,6.1
2023-04-18T05:04:40.273Z,6.1
2023-04-18T05:05:40.029Z,6.1
2023-04-18T05:06:40.340Z,6.1
2023-04-18T05:07:40.036Z,6.1
2023-04-18T05:08:40.049Z,6.1
2023-04-18T05:09:40.023Z,6.1
2023-04-18T05:10:40.027Z,6.1
2023-04-18T05:11:41.107Z,6.1
2023-04-18T05:12:43.838Z,6.1
2023-04-18T05:13:46.516Z,6.1
2023-04-18T05:14:40.022Z,6.1
2023-04-18T05:15:40.044Z,6.2
2023-04-18T05:16:40.031Z,6.2
2023-04-18T05:17:40.058Z,6.2
2023-04-18T05:18:40.022Z,6.2
2023-04-18T05:19:40.032Z,6.2
2023-04-18T05:20:40.046Z,6.2
2023-04-18T05:21:40.033Z,6.3
2023-04-18T05:22:40.019Z,6.3
2023-04-18T05:23:40.043Z,6.3
2023-04-18T05:24:40.021Z,6.3
2023-04-18T05:25:40.051Z,6.3
2023-04-18T05:26:40.023Z,6.3
2023-04-18T05:27:40.027Z,6.4
2023-04-18T05:28:40.024Z,6.4
2023-04-18T05:29:40.028Z,6.4
2023-04-18T05:30:40.064Z,6.4
2023-04-18T05:31:40.034Z,6.4
2023-04-18T05:32:41.243Z,6.4
2023-04-18T05:33:44.710Z,6.4
2023-04-18T05:34:47.154Z,6.5
2023-04-18T05:36:40.047Z,6.5
2023-04-18T05:37:40.022Z,6.5
2023-04-18T05:38:40.041Z,6.5
2023-04-18T05:39:40.033Z,6.6
2023-04-18T05:40:40.052Z,6.6
2023-04-18T05:41:40.025Z,6.6
2023-04-18T05:42:40.029Z,6.6
2023-04-18T05:43:40.194Z,6.6
2023-04-18T05:44:40.032Z,6.6
2023-04-18T05:45:40.117Z,6.6
2023-04-18T05:46:40.135Z,6.6
2023-04-18T05:47:40.077Z,6.6
2023-04-18T05:48:40.026Z,6.6
2023-04-18T05:49:40.032Z,6.6
2023-04-18T05:50:40.133Z,6.6
2023-04-18T05:51:40.031Z,6.6
2023-04-18T05:52:40.036Z,6.6
2023-04-18T05:53:41.339Z,6.6
2023-04-18T05:54:44.483Z,6.7
2023-04-18T05:55:47.223Z,6.7
2023-04-18T05:56:40.046Z,6.7
2023-04-18T05:57:40.141Z,6.7
2023-04-18T05:58:40.027Z,6.7
2023-04-18T05:59:40.029Z,6.7
2023-04-18T06:00:40.217Z,6.7
2023-04-18T06:01:40.039Z,6.7
2023-04-18T06:02:40.238Z,6.7
2023-04-18T06:03:40.225Z,6.7
2023-04-18T06:04:40.307Z,6.8
2023-04-18T06:05:40.087Z,6.8
2023-04-18T06:06:40.037Z,6.8
2023-04-18T06:07:40.041Z,6.8
2023-04-18T06:08:40.040Z,6.8
2023-04-18T06:09:40.037Z,6.8
2023-04-18T06:10:40.310Z,6.8
2023-04-18T06:11:40.040Z,6.8
2023-04-18T06:12:40.031Z,6.8
2023-04-18T06:13:40.026Z,6.8
2023-04-18T06:14:41.510Z,6.8
2023-04-18T06:15:44.661Z,6.9
2023-04-18T06:16:47.342Z,6.9
2023-04-18T06:17:40.074Z,6.9
2023-04-18T06:18:40.208Z,6.9
2023-04-18T06:19:40.028Z,6.9
2023-04-18T06:20:40.117Z,6.9
2023-04-18T06:21:40.030Z,6.9
2023-04-18T06:22:40.045Z,6.9
2023-04-18T06:23:40.026Z,7
2023-04-18T06:24:40.065Z,7
2023-04-18T06:25:40.176Z,7
2023-04-18T06:26:40.041Z,7
2023-04-18T06:27:40.045Z,7
2023-04-18T06:28:40.045Z,7
2023-04-18T06:29:40.027Z,7.1
2023-04-18T06:30:40.421Z,7.1
2023-04-18T06:31:40.050Z,7.1
2023-04-18T06:32:40.058Z,7.1
2023-04-18T06:33:40.032Z,7.1
2023-04-18T06:34:40.035Z,7.2
2023-04-18T06:35:41.543Z,7.2
2023-04-18T06:36:44.615Z,7.2
2023-04-18T06:37:47.443Z,7.2
2023-04-18T06:38:40.042Z,7.2
2023-04-18T06:39:40.200Z,7.2
2023-04-18T06:40:40.042Z,7.2
2023-04-18T06:41:40.033Z,7.2
2023-04-18T06:42:40.025Z,7.2
2023-04-18T06:43:42.556Z,7.2
2023-04-18T06:44:40.059Z,7.2
2023-04-18T06:45:40.062Z,7.2
2023-04-18T06:46:40.026Z,7.2
2023-04-18T06:47:40.086Z,7.2
2023-04-18T06:48:40.025Z,7.2
2023-04-18T06:49:40.212Z,7.2
2023-04-18T06:50:40.032Z,7.2
2023-04-18T06:51:40.025Z,7.2
2023-04-18T06:52:40.036Z,7.2
2023-04-18T06:53:40.028Z,7.2
2023-04-18T06:54:40.037Z,7.3
2023-04-18T06:55:40.034Z,7.3
2023-04-18T06:56:41.628Z,7.3
2023-04-18T06:57:44.696Z,7.3
2023-04-18T06:58:47.061Z,7.3
2023-04-18T06:59:40.025Z,7.3
2023-04-18T07:00:40.053Z,7.3
2023-04-18T07:01:40.066Z,7.3
2023-04-18T07:02:40.141Z,7.3
2023-04-18T07:03:40.154Z,7.3
2023-04-18T07:04:40.139Z,7.3
2023-04-18T07:05:40.031Z,7.3
2023-04-18T07:06:40.024Z,7.3
2023-04-18T07:07:40.024Z,7.3
2023-04-18T07:08:40.034Z,7.3
2023-04-18T07:09:40.051Z,7.3
2023-04-18T07:10:40.171Z,7.3
2023-04-18T07:11:40.033Z,7.3
2023-04-18T07:12:40.042Z,7.3
2023-04-18T07:13:40.033Z,7.3
2023-04-18T07:14:40.039Z,7.4
2023-04-18T07:15:40.031Z,7.4
2023-04-18T07:16:40.041Z,7.3
2023-04-18T07:17:41.698Z,7.3
2023-04-18T07:18:44.774Z,7.3
2023-04-18T07:19:47.593Z,7.3
2023-04-18T07:20:40.046Z,7.3
2023-04-18T07:21:40.022Z,7.3
2023-04-18T07:22:40.026Z,7.3
2023-04-18T07:23:40.056Z,7.3
2023-04-18T07:24:40.034Z,7.3
2023-04-18T07:25:40.058Z,7.3
2023-04-18T07:26:40.039Z,7.4
2023-04-18T07:27:40.043Z,7.4
2023-04-18T07:28:40.047Z,7.4
2023-04-18T07:29:40.024Z,7.4
2023-04-18T07:30:40.057Z,7.5
2023-04-18T07:31:40.029Z,7.5
2023-04-18T07:32:40.035Z,7.5
2023-04-18T07:33:40.048Z,7.5
2023-04-18T07:34:40.025Z,7.5
2023-04-18T07:35:40.027Z,7.5
2023-04-18T07:36:40.024Z,7.6
2023-04-18T07:37:40.036Z,7.6
2023-04-18T07:38:41.840Z,7.6
2023-04-18T07:39:44.814Z,7.6
2023-04-18T07:40:47.684Z,7.7
2023-04-18T07:41:40.032Z,7.7
2023-04-18T07:42:40.029Z,7.7
2023-04-18T07:43:40.025Z,7.7
2023-04-18T07:44:40.062Z,7.7
2023-04-18T07:45:40.029Z,7.7
2023-04-18T07:46:40.123Z,7.7
2023-04-18T07:47:40.086Z,7.7
2023-04-18T07:48:40.056Z,7.7
2023-04-18T07:49:40.041Z,7.7
2023-04-18T07:50:40.026Z,7.7
2023-04-18T07:51:40.026Z,7.7
2023-04-18T07:52:40.037Z,7.7
2023-04-18T07:53:40.037Z,7.7
2023-04-18T07:54:40.027Z,7.7
2023-04-18T07:55:40.025Z,7.7
2023-04-18T07:56:40.037Z,7.7
2023-04-18T07:57:40.027Z,7.7
2023-04-18T07:58:40.033Z,7.7
2023-04-18T07:59:40.028Z,7.7
2023-04-18T08:00:42.043Z,7.7
2023-04-18T08:01:44.918Z,7.7
2023-04-18T08:02:40.191Z,7.7
2023-04-18T08:03:40.097Z,7.7
2023-04-18T08:04:40.130Z,7.7
2023-04-18T08:05:40.180Z,7.7
2023-04-18T08:06:40.034Z,7.7
2023-04-18T08:07:40.060Z,7.7
2023-04-18T08:08:40.077Z,7.7
2023-04-18T08:10:40.033Z,7.7
2023-04-18T08:11:40.066Z,7.7
2023-04-18T08:12:40.043Z,7.7
2023-04-18T08:13:40.049Z,7.7
2023-04-18T08:14:40.029Z,7.7
2023-04-18T08:15:40.031Z,7.7
2023-04-18T08:16:40.114Z,7.8
2023-04-18T08:17:40.070Z,7.8
2023-04-18T08:18:40.051Z,7.8
2023-04-18T08:19:40.025Z,7.8
2023-04-18T08:20:40.038Z,7.8
2023-04-18T08:21:42.274Z,7.8
2023-04-18T08:23:01.935Z,7.9
2023-04-18T08:23:40.054Z,7.9
2023-04-18T08:24:40.106Z,8
2023-04-18T08:25:40.052Z,8
2023-04-18T08:26:40.026Z,8
2023-04-18T08:27:40.026Z,8.1
2023-04-18T08:28:40.045Z,8.1
2023-04-18T08:29:40.031Z,8.2
2023-04-18T08:30:40.033Z,8.2
2023-04-18T08:31:40.067Z,8.3
2023-04-18T08:32:40.072Z,8.3
2023-04-18T08:33:40.033Z,8.4
2023-04-18T08:34:40.029Z,8.4
2023-04-18T08:35:40.030Z,8.4
2023-04-18T08:36:40.047Z,8.4
2023-04-18T08:37:40.047Z,8.5
2023-04-18T08:38:40.046Z,8.5
2023-04-18T08:39:40.069Z,8.6
2023-04-18T08:40:40.082Z,8.7
2023-04-18T08:41:40.033Z,8.7
2023-04-18T08:42:42.247Z,8.7
2023-04-18T08:43:45.111Z,8.8
2023-04-18T08:44:40.030Z,8.9
2023-04-18T08:45:40.043Z,8.9
2023-04-18T08:46:40.084Z,9
2023-04-18T08:47:40.050Z,9
2023-04-18T08:48:40.149Z,9.1
2023-04-18T08:49:40.061Z,9.1
2023-04-18T08:50:40.035Z,9.2
2023-04-18T08:51:40.036Z,9.2
2023-04-18T08:52:40.029Z,9.3
2023-04-18T08:53:40.157Z,9.3
2023-04-18T08:54:40.034Z,9.3
2023-04-18T08:55:40.121Z,9.4
2023-04-18T08:56:40.173Z,9.4
2023-04-18T08:57:40.179Z,9.4
2023-04-18T08:59:40.068Z,9.5
2023-04-18T09:00:40.027Z,9.5
2023-04-18T09:01:40.045Z,9.6
2023-04-18T09:02:40.205Z,9.6
2023-04-18T09:03:42.428Z,9.6
2023-04-18T09:04:45.228Z,9.6
2023-04-18T09:05:40.181Z,9.7
2023-04-18T09:06:40.030Z,9.7
2023-04-18T09:07:40.025Z,9.7
2023-04-18T09:08:40.266Z,9.8
2023-04-18T09:09:40.041Z,9.8
2023-04-18T09:10:40.172Z,9.8
2023-04-18T09:11:40.025Z,9.8
2023-04-18T09:12:40.160Z,9.8
2023-04-18T09:13:40.206Z,9.9
2023-04-18T09:14:40.028Z,9.9
2023-04-18T09:15:40.268Z,10
2023-04-18T09:16:40.129Z,10
2023-04-18T09:17:40.184Z,10
2023-04-18T09:18:40.225Z,10
2023-04-18T09:19:40.187Z,10
2023-04-18T09:20:40.041Z,10
2023-04-18T09:21:40.048Z,10
2023-04-18T09:22:40.235Z,10
2023-04-18T09:23:40.024Z,10.1
2023-04-18T09:24:42.391Z,10.1
2023-04-18T09:25:45.652Z,10.1
2023-04-18T09:26:40.069Z,10.1
2023-04-18T09:27:40.340Z,10.1
2023-04-18T09:28:40.030Z,10.1
2023-04-18T09:29:40.026Z,10.1
2023-04-18T09:30:40.130Z,10.1
2023-04-18T09:31:40.258Z,10.2
2023-04-18T09:32:40.282Z,10.2
2023-04-18T09:33:40.035Z,10.2
2023-04-18T09:34:40.037Z,10.2
2023-04-18T09:35:40.035Z,10.3
2023-04-18T09:36:40.060Z,10.3
2023-04-18T09:37:40.030Z,10.3
2023-04-18T09:38:40.045Z,10.3
2023-04-18T09:39:40.023Z,10.4
2023-04-18T09:40:40.035Z,10.4
2023-04-18T09:41:40.473Z,10.5
2023-04-18T09:42:40.044Z,10.6
2023-04-18T09:43:40.027Z,10.6
2023-04-18T09:44:40.040Z,10.6
2023-04-18T09:45:42.158Z,10.6
2023-04-18T09:46:47.020Z,10.6
2023-04-18T09:48:40.030Z,10.6
2023-04-18T09:49:40.468Z,10.6
2023-04-18T09:50:40.030Z,10.6
2023-04-18T09:51:40.327Z,10.6
2023-04-18T09:52:40.619Z,10.6
2023-04-18T09:53:40.433Z,10.6
2023-04-18T09:54:40.384Z,10.6
2023-04-18T09:55:40.054Z,10.6
2023-04-18T09:56:40.345Z,10.6
2023-04-18T09:57:40.041Z,10.6
2023-04-18T09:58:40.032Z,10.6
2023-04-18T09:59:40.026Z,10.6
2023-04-18T10:00:40.055Z,10.6
2023-04-18T10:01:40.343Z,10.6
2023-04-18T10:02:40.130Z,10.6
2023-04-18T10:03:40.099Z,10.6
2023-04-18T10:04:40.424Z,10.7
2023-04-18T10:05:40.088Z,10.7
2023-04-18T10:06:42.661Z,10.7
2023-04-18T10:07:45.453Z,10.8
2023-04-18T10:08:40.474Z,10.8
2023-04-18T10:09:40.026Z,10.8
2023-04-18T10:10:40.042Z,10.8
2023-04-18T10:11:40.304Z,10.8
2023-04-18T10:12:40.026Z,10.8
2023-04-18T10:13:40.029Z,10.8
2023-04-18T10:14:40.025Z,10.9
2023-04-18T10:15:41.205Z,10.9
2023-04-18T10:16:40.127Z,10.9
2023-04-18T10:17:42.748Z,10.8
2023-04-18T10:18:40.028Z,10.8
2023-04-18T10:19:40.036Z,10.8
2023-04-18T10:20:40.313Z,10.8
2023-04-18T10:21:40.027Z,10.8
2023-04-18T10:22:40.022Z,10.8
2023-04-18T10:23:40.094Z,10.8
2023-04-18T10:24:40.028Z,10.8
2023-04-18T10:25:40.054Z,10.9
2023-04-18T10:26:40.027Z,11
2023-04-18T10:27:42.949Z,11
2023-04-18T10:28:45.991Z,11
2023-04-18T10:29:40.022Z,11
2023-04-18T10:30:40.035Z,11.1
2023-04-18T10:31:40.067Z,11.1
2023-04-18T10:32:40.049Z,11.1
2023-04-18T10:33:42.322Z,11.2
2023-04-18T10:34:40.028Z,11.2
2023-04-18T10:35:41.375Z,11.3
2023-04-18T10:36:40.027Z,11.3
2023-04-18T10:37:40.026Z,11.4
2023-04-18T10:38:40.086Z,11.4
2023-04-18T10:39:40.056Z,11.4
2023-04-18T10:40:40.036Z,11.5
2023-04-18T10:41:40.037Z,11.5
2023-04-18T10:42:40.052Z,11.6
2023-04-18T10:43:40.046Z,11.7
2023-04-18T10:44:40.028Z,11.7
2023-04-18T10:45:40.221Z,11.7
2023-04-18T10:46:40.073Z,11.7
2023-04-18T10:47:40.261Z,11.7
2023-04-18T10:48:40.117Z,11.7
2023-04-18T10:49:42.895Z,11.7
2023-04-18T10:50:45.731Z,11.7
2023-04-18T10:51:40.026Z,11.8
2023-04-18T10:52:40.039Z,11.8
2023-04-18T10:53:40.034Z,11.9
2023-04-18T10:54:40.066Z,12
2023-04-18T10:55:40.028Z,12
2023-04-18T10:56:40.030Z,12.1
2023-04-18T10:57:40.038Z,12.1
2023-04-18T10:58:40.025Z,12.2
2023-04-18T10:59:40.043Z,12.2
2023-04-18T11:00:40.069Z,12.2
2023-04-18T11:01:40.098Z,12.2
2023-04-18T11:02:40.123Z,12.2
2023-04-18T11:04:40.030Z,12.2
2023-04-18T11:05:40.033Z,12.3
2023-04-18T11:06:40.059Z,12.2
2023-04-18T11:07:40.023Z,12.2
2023-04-18T11:08:40.025Z,12.2
2023-04-18T11:09:40.025Z,12.1
2023-04-18T11:10:42.822Z,12.1
2023-04-18T11:11:45.410Z,12.1
2023-04-18T11:12:40.049Z,12.1
2023-04-18T11:13:40.046Z,12
2023-04-18T11:14:40.069Z,12
2023-04-18T11:15:40.099Z,12
2023-04-18T11:16:40.165Z,12
2023-04-18T11:17:40.189Z,12
2023-04-18T11:18:40.020Z,12
2023-04-18T11:19:40.045Z,12
2023-04-18T11:20:40.085Z,12
2023-04-18T11:21:40.029Z,12.1
2023-04-18T11:22:40.057Z,12.1
2023-04-18T11:23:40.036Z,12.2
2023-04-18T11:24:40.045Z,12.2
2023-04-18T11:25:40.035Z,12.3
2023-04-18T11:26:40.039Z,12.4
2023-04-18T11:27:40.062Z,12.5
2023-04-18T11:28:40.036Z,12.6
2023-04-18T11:29:40.034Z,12.7
2023-04-18T11:30:40.232Z,12.8
2023-04-18T11:31:42.576Z,12.8
2023-04-18T11:32:45.902Z,12.9
2023-04-18T11:33:40.029Z,13
2023-04-18T11:34:40.048Z,13
2023-04-18T11:35:40.045Z,13.1
2023-04-18T11:36:40.031Z,13.1
2023-04-18T11:37:40.029Z,13.1
2023-04-18T11:38:40.031Z,13.1
2023-04-18T11:39:40.031Z,13.1
2023-04-18T11:40:40.053Z,13.1
2023-04-18T11:41:40.038Z,13
2023-04-18T11:42:40.035Z,13
2023-04-18T11:43:40.031Z,12.9
2023-04-18T11:44:40.093Z,12.9
2023-04-18T11:45:40.064Z,12.9
2023-04-18T11:46:40.036Z,12.9
2023-04-18T11:47:40.063Z,12.9
2023-04-18T11:48:40.081Z,13
2023-04-18T11:49:40.032Z,13.1
2023-04-18T11:50:40.072Z,13.1
2023-04-18T11:51:40.802Z,13.1
2023-04-18T11:52:42.984Z,13.1
2023-04-18T11:53:45.532Z,13.1
2023-04-18T11:54:40.099Z,13.1
2023-04-18T11:55:40.034Z,13.1
2023-04-18T11:56:40.032Z,13.1
2023-04-18T11:57:40.056Z,13.1
2023-04-18T11:58:40.049Z,13.1
2023-04-18T11:59:40.022Z,13
2023-04-18T12:00:40.032Z,12.9
2023-04-18T12:01:40.019Z,12.9
2023-04-18T12:02:40.198Z,12.9
2023-04-18T12:03:40.188Z,12.9
2023-04-18T12:04:40.252Z,12.9
2023-04-18T12:05:40.137Z,13
2023-04-18T12:06:40.034Z,13
2023-04-18T12:07:40.414Z,13
2023-04-18T12:08:40.025Z,13
2023-04-18T12:09:40.051Z,13
2023-04-18T12:10:40.030Z,13
2023-04-18T12:11:40.034Z,13
2023-04-18T12:12:40.444Z,12.9
2023-04-18T12:13:43.242Z,12.9
2023-04-18T12:14:46.176Z,12.9
2023-04-18T12:15:40.119Z,12.9
2023-04-18T12:16:40.025Z,12.8
2023-04-18T12:17:40.042Z,12.8
2023-04-18T12:18:40.046Z,12.7
2023-04-18T12:19:40.035Z,12.7
2023-04-18T12:20:40.064Z,12.7
2023-04-18T12:21:40.035Z,12.6
2023-04-18T12:22:40.086Z,12.6
2023-04-18T12:23:40.042Z,12.5
2023-04-18T12:24:40.034Z,12.5
2023-04-18T12:25:40.032Z,12.5
2023-04-18T12:26:40.030Z,12.5
2023-04-18T12:27:40.033Z,12.6
2023-04-18T12:28:40.045Z,12.6
2023-04-18T12:29:40.030Z,12.6
2023-04-18T12:30:40.032Z,12.6
2023-04-18T12:31:40.106Z,12.6
2023-04-18T12:32:40.030Z,12.5
2023-04-18T12:33:40.561Z,12.4
2023-04-18T12:34:42.876Z,12.4
2023-04-18T12:35:46.436Z,12.4
2023-04-18T12:37:40.027Z,12.4
2023-04-18T12:38:40.064Z,12.4
2023-04-18T12:39:40.027Z,12.4
2023-04-18T12:40:40.037Z,12.4
2023-04-18T12:41:40.046Z,12.5
2023-04-18T12:42:40.032Z,12.5
2023-04-18T12:43:40.045Z,12.6
2023-04-18T12:44:40.050Z,12.7
2023-04-18T12:45:40.035Z,12.7
2023-04-18T12:46:40.055Z,12.8
2023-04-18T12:47:40.034Z,12.9
2023-04-18T12:48:40.062Z,12.9
2023-04-18T12:49:40.027Z,13
2023-04-18T12:50:40.022Z,13
2023-04-18T12:51:40.031Z,13.1
2023-04-18T12:52:40.058Z,13.1
2023-04-18T12:53:40.033Z,13.1
2023-04-18T12:54:40.558Z,13.1
2023-04-18T12:55:42.947Z,13.1
2023-04-18T12:56:46.401Z,13.1
2023-04-18T12:57:40.033Z,13.1
2023-04-18T12:58:40.027Z,13.2
2023-04-18T12:59:40.015Z,13.3
2023-04-18T13:00:40.056Z,13.3
2023-04-18T13:01:40.028Z,13.4
2023-04-18T13:02:40.228Z,13.5
2023-04-18T13:03:40.155Z,13.5
2023-04-18T13:04:40.117Z,13.5
2023-04-18T13:05:40.246Z,13.6
2023-04-18T13:06:40.042Z,13.7
2023-04-18T13:07:40.028Z,13.8
2023-04-18T13:08:40.035Z,13.9
2023-04-18T13:09:40.038Z,14
2023-04-18T13:10:40.043Z,14.1
2023-04-18T13:11:40.028Z,14.2
2023-04-18T13:12:40.024Z,14.2
2023-04-18T13:13:40.034Z,14.3
2023-04-18T13:14:40.035Z,14.3
2023-04-18T13:15:40.670Z,14.3
2023-04-18T13:16:43.895Z,14.3
2023-04-18T13:17:46.473Z,14.3
2023-04-18T13:18:40.030Z,14.3
2023-04-18T13:19:40.030Z,14.3
2023-04-18T13:20:40.423Z,14.3
2023-04-18T13:21:40.032Z,14.2
2023-04-18T13:22:40.031Z,14.2
2023-04-18T13:23:40.036Z,14.2
2023-04-18T13:24:40.044Z,14.2
2023-04-18T13:25:40.027Z,14.1
2023-04-18T13:26:40.212Z,14.1
2023-04-18T13:27:41.704Z,14
2023-04-18T13:28:40.049Z,13.9
2023-04-18T13:29:40.047Z,13.8
2023-04-18T13:30:40.032Z,13.7
2023-04-18T13:31:40.044Z,13.7
2023-04-18T13:32:40.057Z,13.6
2023-04-18T13:33:40.081Z,13.6
2023-04-18T13:34:40.057Z,13.6
2023-04-18T13:35:40.048Z,13.6
2023-04-18T13:36:40.757Z,13.6
2023-04-18T13:37:43.242Z,13.5
2023-04-18T13:38:46.657Z,13.6
2023-04-18T13:39:40.349Z,13.6
2023-04-18T13:40:40.046Z,13.7
2023-04-18T13:41:40.036Z,13.7
2023-04-18T13:42:40.040Z,13.9
2023-04-18T13:43:40.037Z,14
2023-04-18T13:44:40.050Z,14.1
2023-04-18T13:45:40.047Z,14.1
2023-04-18T13:46:40.029Z,14.2
2023-04-18T13:47:40.048Z,14.2
2023-04-18T13:48:40.032Z,14.2